Flight Track Log - Related Links

Times and Time Zones

All times are in EDT time to prevent confusion due to time zone crossing. See the CJC4991 flight status page for this flight to view local times or setup timezone preferences in your user account.

Time Position Orientation Groundspeed Altitude Reporting Facility
EDT Latitude Longitude Course Direction KTS MPH feet Rate Location/Type
Fri 06:21:15 PM 31.5916 -97.2107 147° Southeast  Level FlightAware Approximate
Fri 06:22:15 PM 31.5464 -97.1574 152° Southeast  Level FlightAware Approximate
Fri 06:23:15 PM 31.5012 -97.1043 160° South  Level FlightAware Approximate
Fri 06:24:15 PM 31.4559 -97.0512 183° South  Level FlightAware Approximate
Fri 06:25:57 PM 31.3861 -97.0556 148° Southeast 219 252 7,100  Level Fort Worth Center
Fri 06:26:42 PM 31.3475 -97.0269 139° Southeast 223 257 7,600 800 Climbing Houston Center
Fri 06:27:42 PM 31.2994 -96.9783 141° Southeast 235 270 8,500 850 Climbing Houston Center
Fri 06:28:42 PM 31.2511 -96.9319 140° Southeast 235 270 9,300 800 Climbing Houston Center
Fri 06:29:42 PM 31.2031 -96.8856 141° Southeast 235 270 10,100 800 Climbing Houston Center
Fri 06:30:42 PM 31.1547 -96.8394 142° Southeast 235 270 10,900 800 Climbing Houston Center
Fri 06:31:42 PM 31.1044 -96.7933 141° Southeast 235 270 11,700 550 Climbing Houston Center
Fri 06:32:42 PM 31.0581 -96.7497 135° Southeast 235 270 12,000 150 Climbing Houston Center
Fri 06:33:42 PM 31.0081 -96.6917 104° East 248 285 12,000  Level Houston Center
Fri 06:34:42 PM 30.9903 -96.6083 100° East 278 320 12,000  Level Houston Center
Fri 06:35:42 PM 30.9767 -96.5206 102° East 272 313 12,000  Level Houston Center
Fri 06:36:42 PM 30.9611 -96.4350 102° East 272 313 12,000 -50 Level Houston Center
Fri 06:37:42 PM 30.9453 -96.3497 103° East 266 306 11,900 -400 Descending Houston Center
Fri 06:38:42 PM 30.9258 -96.2494 102° East 271 312 11,200 -650 Descending Houston Center
Fri 06:39:42 PM 30.9081 -96.1544 126° Southeast 284 327 10,600 -750 Descending Houston Center
Fri 06:40:42 PM 30.8625 -96.0822 150° Southeast 289 333 9,700 -800 Descending Houston Center
Fri 06:41:42 PM 30.7972 -96.0383 149° Southeast 274 315 9,000 -350 Descending Houston Center
Fri 06:42:42 PM 30.7319 -95.9919 152° Southeast 282 325 9,000  Level Houston Center
Fri 06:43:42 PM 30.6644 -95.9506 148° Southeast 276 318 9,000  Level Houston Center
Fri 06:44:42 PM 30.6033 -95.9069 149° Southeast 271 312 9,000  Level Houston Center
Fri 06:45:42 PM 30.5400 -95.8633 150° Southeast 266 306 9,000  Level Houston Center
Fri 06:46:42 PM 30.4744 -95.8194 152° Southeast 266 306 9,000 -250 Level Houston Center
Fri 06:47:42 PM 30.4111 -95.7808 158° South 266 306 8,500 -500 Descending Houston Center
Fri 06:48:42 PM 30.3389 -95.7467 243° Southwest 266 306 8,000 -250 Descending Houston Center
Fri 06:49:42 PM 30.3075 -95.8175 219° Southwest 192 221 8,000  Level Houston Center
Fri 06:50:42 PM 30.2581 -95.8636 178° South 204 235 8,000  Level Houston Center
Fri 06:51:42 PM 30.1872 -95.8608 178° South 230 265 8,000  Level Houston Center
Fri 06:52:42 PM 30.1206 -95.8581 157° South 236 272 8,000 -333 Level Houston Center
Fri 06:53:12 PM 30.0836 -95.8397 152° Southeast 243 280 7,500 -800 Descending Houston Center
Fri 06:53:42 PM 30.0631 -95.8269 155° Southeast 236 272 7,200 -484 Descending Houston Center
Fri 06:54:14 PM 30.0242 -95.8061 116° Southeast 232 267 7,000 -194 Descending Houston Center
Fri 06:55:15 PM 29.9969 -95.7428 96° East 230 265 6,900 -689 Descending Houston Center
Fri 06:56:16 PM 29.9906 -95.6753 88° East 221 254 5,600 -1,377 Descending Houston Center
Fri 06:57:17 PM 29.9928 -95.5961 93° East 217 250 4,100 -1,230 Descending Houston Center
Fri 06:58:18 PM 29.9903 -95.5361 88° East 177 204 3,100 -976 Descending Houston Center
Fri 06:59:20 PM 29.9919 -95.4786 93° East 183 211 2,100 -878 Descending Houston Center
Fri 07:00:21 PM 29.9894 -95.4258 85° East 149 171 1,300 -738 Descending Houston Center
Fri 07:01:22 PM 29.9925 -95.3828 85° East 120 138 600 -689 Descending Houston Center

Login

Don't have an account? Register now (free) for customized features, flight alerts, and more!